Time;durP1;ratioP1;P1;durP2;ratioP2;P2;SDS_P1;SDS_P2;PMS_P1;PMS_P2;Temp;Humidity;BMP_temperature;BMP_pressure;BME280_temperature;BME280_humidity;BME280_pressure;Samples;Min_cycle;Max_cycle;Signal;HPM_P1;HPM_P2
2022/06/27 00:01:51;;;;;;;5.72;1.75;;;25.00;65.40;;;;;;5073994;28;20536;-66
2022/06/27 00:04:16;;;;;;;4.60;1.70;;;25.00;65.20;;;;;;5074043;28;20033;-65
2022/06/27 00:06:42;;;;;;;5.30;1.70;;;24.90;64.90;;;;;;5073869;28;20040;-65
2022/06/27 00:09:08;;;;;;;3.90;1.33;;;24.90;65.20;;;;;;5073901;28;20044;-64
2022/06/27 00:11:33;;;;;;;6.55;1.85;;;24.90;65.40;;;;;;5074047;28;20040;-64
2022/06/27 00:13:59;;;;;;;5.30;1.63;;;24.90;65.70;;;;;;5073931;28;20032;-65
2022/06/27 00:16:25;;;;;;;5.35;1.50;;;24.80;65.60;;;;;;5073772;28;20040;-64
2022/06/27 00:18:50;;;;;;;6.35;1.80;;;24.80;66.00;;;;;;5073845;28;20107;-64
2022/06/27 00:21:16;;;;;;;4.55;1.90;;;24.80;66.30;;;;;;5073952;28;20037;-65
2022/06/27 00:23:42;;;;;;;7.65;2.15;;;24.80;66.30;;;;;;5073782;28;20028;-65
2022/06/27 00:26:08;;;;;;;4.93;1.67;;;24.80;66.30;;;;;;5073519;28;20025;-65
2022/06/27 00:28:34;;;;;;;5.10;2.05;;;24.80;66.40;;;;;;5073467;28;20483;-65
2022/06/27 00:30:59;;;;;;;5.85;1.75;;;24.70;66.30;;;;;;5073861;28;20036;-66
2022/06/27 00:33:25;;;;;;;4.93;2.00;;;24.70;66.20;;;;;;5073533;28;20041;-66
2022/06/27 00:35:53;;;;;;;11.25;1.80;;;24.70;66.70;;;;;;5073996;28;20385;-64
2022/06/27 00:38:19;;;;;;;10.38;1.92;;;24.60;67.00;;;;;;5073340;28;20044;-65
2022/06/27 00:40:45;;;;;;;4.57;1.70;;;24.60;66.90;;;;;;5073202;28;20032;-64
2022/06/27 00:43:11;;;;;;;4.18;1.77;;;24.60;67.10;;;;;;5073643;28;20392;-65
2022/06/27 00:45:37;;;;;;;7.03;1.80;;;24.60;66.70;;;;;;5073652;28;20047;-65
2022/06/27 00:48:03;;;;;;;4.18;1.65;;;24.60;67.10;;;;;;5073675;28;20029;-65
2022/06/27 00:50:28;;;;;;;4.97;2.03;;;24.60;66.70;;;;;;5073051;28;20055;-66
2022/06/27 00:52:54;;;;;;;3.05;1.63;;;24.60;66.90;;;;;;5073280;28;20028;-64
2022/06/27 00:55:20;;;;;;;6.20;1.58;;;24.50;67.00;;;;;;5073442;28;20413;-65
2022/06/27 00:57:46;;;;;;;5.78;1.70;;;24.60;67.90;;;;;;5072126;28;20335;-65
2022/06/27 01:00:12;;;;;;;5.05;1.60;;;24.60;67.20;;;;;;5069338;28;20040;-65
2022/06/27 01:02:38;;;;;;;8.88;1.92;;;24.60;67.00;;;;;;5070353;28;20055;-65
2022/06/27 01:05:05;;;;;;;5.50;1.52;;;24.60;67.10;;;;;;5071588;28;20517;-65
2022/06/27 01:07:31;;;;;;;5.93;1.83;;;24.50;67.10;;;;;;5073096;28;20552;-66
2022/06/27 01:09:57;;;;;;;4.47;1.70;;;24.50;67.50;;;;;;5072783;28;20040;-65
2022/06/27 01:12:23;;;;;;;3.35;1.75;;;24.50;67.40;;;;;;5072988;28;20112;-64
2022/06/27 01:14:50;;;;;;;5.55;1.88;;;24.50;67.10;;;;;;5072834;28;20123;-65
2022/06/27 01:17:17;;;;;;;5.30;1.63;;;24.50;66.30;;;;;;5073488;28;20078;-64
2022/06/27 01:19:43;;;;;;;7.30;1.58;;;24.50;65.00;;;;;;5073054;28;20059;-64
2022/06/27 01:22:10;;;;;;;10.38;1.50;;;24.40;64.30;;;;;;5072622;28;20071;-65
2022/06/27 01:24:36;;;;;;;5.20;1.48;;;24.40;64.90;;;;;;5072887;28;20037;-64
2022/06/27 01:27:02;;;;;;;6.88;1.70;;;24.40;64.60;;;;;;5072906;28;20032;-64
2022/06/27 01:29:28;;;;;;;4.28;1.40;;;24.40;64.40;;;;;;5072488;28;20064;-65
2022/06/27 01:31:54;;;;;;;6.40;1.38;;;24.40;64.20;;;;;;5072801;28;20095;-66
2022/06/27 01:34:20;;;;;;;8.35;1.63;;;24.40;63.80;;;;;;5072448;28;20085;-65
2022/06/27 01:36:47;;;;;;;5.20;1.30;;;24.40;64.00;;;;;;5072258;28;20097;-64
2022/06/27 01:39:18;;;;;;;5.03;1.58;;;24.40;64.20;;;;;;5072393;28;20033;-64
2022/06/27 01:41:46;;;;;;;4.35;1.65;;;24.40;64.30;;;;;;5072662;28;20471;-65
2022/06/27 01:44:13;;;;;;;3.10;1.48;;;24.40;64.40;;;;;;5072576;28;20115;-65
2022/06/27 01:46:44;;;;;;;3.53;1.30;;;24.40;64.40;;;;;;5072572;28;20044;-65
2022/06/27 01:49:11;;;;;;;5.53;1.57;;;24.30;64.30;;;;;;5073849;28;20394;-65
2022/06/27 01:51:37;;;;;;;2.85;1.60;;;24.30;63.70;;;;;;5077020;28;20254;-65
2022/06/27 01:54:06;;;;;;;4.85;1.52;;;24.30;63.30;;;;;;5076751;28;20036;-65
2022/06/27 01:56:32;;;;;;;7.60;1.58;;;24.20;63.30;;;;;;5076751;28;20028;-65
2022/06/27 01:58:58;;;;;;;6.53;1.50;;;24.10;63.80;;;;;;5076551;28;20372;-64
2022/06/27 02:01:26;;;;;;;2.88;1.60;;;24.10;64.20;;;;;;5076522;28;20094;-63
2022/06/27 02:03:53;;;;;;;4.95;1.55;;;24.00;64.50;;;;;;5076617;28;20040;-65
2022/06/27 02:06:18;;;;;;;5.53;1.40;;;24.00;64.80;;;;;;5076009;28;20036;-64
2022/06/27 02:08:46;;;;;;;5.45;1.60;;;24.00;64.90;;;;;;5076334;28;20025;-65
2022/06/27 02:11:15;;;;;;;4.07;1.73;;;23.90;65.70;;;;;;5076253;28;20504;-65
2022/06/27 02:13:42;;;;;;;4.20;1.63;;;23.90;65.80;;;;;;5076579;28;20067;-65
2022/06/27 02:16:18;;;;;;;3.67;1.55;;;23.90;65.60;;;;;;5076340;28;20044;-66
2022/06/27 02:18:45;;;;;;;3.70;1.50;;;23.90;66.20;;;;;;5076153;28;20035;-64
2022/06/27 02:21:12;;;;;;;5.72;1.77;;;23.80;66.50;;;;;;5076103;28;20037;-65
2022/06/27 02:23:39;;;;;;;3.92;1.70;;;23.90;66.80;;;;;;5076386;28;20056;-64
2022/06/27 02:26:10;;;;;;;5.30;1.63;;;23.80;66.50;;;;;;5076077;28;20075;-65
2022/06/27 02:28:36;;;;;;;2.67;1.40;;;23.80;66.10;;;;;;5076055;28;20063;-64
2022/06/27 02:31:03;;;;;;;6.65;1.58;;;23.80;65.90;;;;;;5075816;28;20115;-63
2022/06/27 02:33:37;;;;;;;4.40;1.83;;;23.80;65.70;;;;;;5075638;28;20059;-64
2022/06/27 02:36:05;;;;;;;7.25;1.50;;;23.80;66.10;;;;;;5075802;28;20483;-64
2022/06/27 02:38:32;;;;;;;8.85;1.73;;;23.80;66.70;;;;;;5075801;28;20028;-65
2022/06/27 02:40:59;;;;;;;16.27;1.80;;;23.70;66.50;;;;;;5075910;28;20036;-65
2022/06/27 02:43:28;;;;;;;7.93;1.77;;;23.70;66.50;;;;;;5075694;28;20074;-65
2022/06/27 02:45:55;;;;;;;20.35;2.40;;;23.70;67.20;;;;;;5075389;28;20037;-65
2022/06/27 02:48:23;;;;;;;14.93;2.22;;;23.60;67.30;;;;;;5075276;28;20036;-65
2022/06/27 02:50:54;;;;;;;34.97;2.80;;;23.70;67.00;;;;;;5075870;28;20440;-65
2022/06/27 02:53:25;;;;;;;9.73;2.17;;;23.60;66.50;;;;;;5075586;28;20033;-64
2022/06/27 02:55:54;;;;;;;10.60;1.98;;;23.60;66.30;;;;;;5075306;28;20490;-65
2022/06/27 02:58:38;;;;;;;3.42;1.80;;;23.60;66.40;;;;;;5075191;28;20386;-65
2022/06/27 03:01:04;;;;;;;8.60;1.67;;;23.50;67.00;;;;;;5074318;28;20072;-65
2022/06/27 03:03:32;;;;;;;7.70;1.45;;;23.50;66.80;;;;;;5075338;28;20064;-66
2022/06/27 03:06:03;;;;;;;3.95;1.50;;;23.50;66.70;;;;;;5074631;28;20387;-65
2022/06/27 03:08:40;;;;;;;6.32;1.45;;;23.40;66.70;;;;;;5075193;28;20032;-66
2022/06/27 03:11:06;;;;;;;5.43;1.58;;;23.40;66.50;;;;;;5074985;28;20071;-64
2022/06/27 03:13:33;;;;;;;3.33;1.40;;;23.40;66.30;;;;;;5075221;28;20025;-65
2022/06/27 03:15:59;;;;;;;4.22;1.13;;;23.40;65.90;;;;;;5075011;28;20071;-65
2022/06/27 03:18:24;;;;;;;4.50;1.50;;;23.40;65.80;;;;;;5075112;28;20060;-66
2022/06/27 03:20:50;;;;;;;10.50;1.65;;;23.40;65.50;;;;;;5075013;28;20502;-64
2022/06/27 03:23:16;;;;;;;4.63;1.50;;;23.40;65.70;;;;;;5075082;28;20033;-66
2022/06/27 03:25:42;;;;;;;3.72;1.40;;;23.40;65.70;;;;;;5075489;28;20071;-64
2022/06/27 03:28:08;;;;;;;5.55;1.70;;;23.30;65.60;;;;;;5075182;28;20068;-65
2022/06/27 03:30:34;;;;;;;9.27;1.70;;;23.30;65.70;;;;;;5074747;28;20044;-64
2022/06/27 03:33:00;;;;;;;6.30;1.70;;;23.30;65.90;;;;;;5074848;28;20044;-64
2022/06/27 03:35:26;;;;;;;6.20;2.10;;;23.30;66.50;;;;;;5075214;28;20040;-65
2022/06/27 03:37:52;;;;;;;4.53;1.58;;;23.30;65.50;;;;;;5074925;28;20056;-65
2022/06/27 03:40:18;;;;;;;4.18;1.60;;;23.20;65.20;;;;;;5074724;28;20040;-64
2022/06/27 03:42:43;;;;;;;4.57;1.50;;;23.20;65.20;;;;;;5074645;28;20098;-65
2022/06/27 03:45:10;;;;;;;9.57;1.42;;;23.20;65.10;;;;;;5074636;28;20037;-65
2022/06/27 03:47:53;;;;;;;4.55;1.35;;;23.20;65.30;;;;;;5074963;28;20392;-65
2022/06/27 03:50:21;;;;;;;6.85;1.30;;;23.20;65.60;;;;;;5074479;28;20070;-65
2022/06/27 03:52:47;;;;;;;6.38;1.40;;;23.20;66.00;;;;;;5074866;28;20547;-65
2022/06/27 03:55:13;;;;;;;8.02;1.50;;;23.20;66.00;;;;;;5074736;28;20056;-65
2022/06/27 03:57:49;;;;;;;4.43;1.50;;;23.20;65.50;;;;;;5074164;28;20071;-66
2022/06/27 04:00:16;;;;;;;7.20;2.05;;;23.20;65.70;;;;;;5074532;28;20055;-63
2022/06/27 04:02:42;;;;;;;2.65;1.35;;;23.20;66.00;;;;;;5074288;28;20040;-64
2022/06/27 04:05:08;;;;;;;3.75;1.65;;;23.20;66.30;;;;;;5073908;28;20029;-64
2022/06/27 04:07:34;;;;;;;5.57;1.38;;;23.20;66.70;;;;;;5073714;28;20037;-62
2022/06/27 04:10:00;;;;;;;7.10;2.00;;;23.20;66.70;;;;;;5073996;28;20143;-63
2022/06/27 04:12:26;;;;;;;7.82;1.55;;;23.20;66.60;;;;;;5073840;28;20546;-64
2022/06/27 04:14:52;;;;;;;4.57;1.65;;;23.20;66.40;;;;;;5074219;28;20037;-64
2022/06/27 04:17:17;;;;;;;7.50;1.55;;;23.30;65.90;;;;;;5074041;28;20029;-64
2022/06/27 04:19:43;;;;;;;4.95;1.80;;;23.30;65.00;;;;;;5073859;28;20032;-64
2022/06/27 04:22:09;;;;;;;8.07;2.13;;;23.30;64.20;;;;;;5073956;28;20649;-63
2022/06/27 04:24:36;;;;;;;6.40;1.73;;;23.30;64.30;;;;;;5073782;28;20036;-63
2022/06/27 04:27:02;;;;;;;6.47;1.40;;;23.30;64.60;;;;;;5073463;28;20501;-64
2022/06/27 04:29:29;;;;;;;6.45;1.40;;;23.30;65.00;;;;;;5073832;28;20036;-63
2022/06/27 04:31:55;;;;;;;4.22;1.27;;;23.30;65.30;;;;;;5073356;28;20032;-65
2022/06/27 04:34:21;;;;;;;3.10;1.10;;;23.40;64.80;;;;;;5073649;28;20103;-63
2022/06/27 04:36:47;;;;;;;6.88;1.55;;;23.30;63.60;;;;;;5074090;28;20032;-63
2022/06/27 04:39:15;;;;;;;8.35;1.20;;;23.40;63.90;;;;;;5073433;28;20028;-64
2022/06/27 04:41:43;;;;;;;1.52;1.13;;;23.40;63.40;;;;;;5073687;28;21089;-63
2022/06/27 04:44:10;;;;;;;7.80;1.30;;;23.40;62.80;;;;;;5073417;28;20048;-64
2022/06/27 04:46:37;;;;;;;5.50;1.20;;;23.40;61.40;;;;;;5073506;28;20028;-64
2022/06/27 04:49:03;;;;;;;2.53;1.20;;;23.50;61.50;;;;;;5073133;28;20098;-64
2022/06/27 04:51:29;;;;;;;8.27;1.20;;;23.50;61.20;;;;;;5073353;28;20494;-63
2022/06/27 04:53:56;;;;;;;3.80;1.40;;;23.60;62.30;;;;;;5073438;28;20110;-63
2022/06/27 04:56:22;;;;;;;3.85;1.20;;;23.60;62.90;;;;;;5073141;28;20032;-63
2022/06/27 04:58:48;;;;;;;3.35;1.20;;;23.60;62.70;;;;;;5073236;28;20399;-63
2022/06/27 05:01:13;;;;;;;3.70;1.40;;;23.60;62.70;;;;;;5073222;28;20032;-64
2022/06/27 05:03:39;;;;;;;4.03;1.15;;;23.70;63.10;;;;;;5073286;28;20037;-63
2022/06/27 05:06:05;;;;;;;6.72;0.90;;;23.80;62.40;;;;;;5073066;28;20047;-63
2022/06/27 05:08:31;;;;;;;6.10;1.50;;;23.80;62.00;;;;;;5072959;28;20115;-67
2022/06/27 05:10:58;;;;;;;7.35;2.08;;;23.80;61.70;;;;;;5072777;28;20119;-67
2022/06/27 05:13:24;;;;;;;4.53;1.40;;;23.90;61.70;;;;;;5072019;28;20035;-66
2022/06/27 05:15:50;;;;;;;6.68;1.60;;;23.90;61.40;;;;;;5072619;28;20376;-67
2022/06/27 05:18:16;;;;;;;7.55;1.38;;;23.90;61.30;;;;;;5072326;28;20115;-67
2022/06/27 05:20:43;;;;;;;5.25;1.30;;;24.00;61.40;;;;;;5072218;28;20436;-67
2022/06/27 05:23:09;;;;;;;10.27;1.30;;;24.00;61.70;;;;;;5071582;28;20041;-68
2022/06/27 05:25:35;;;;;;;2.72;1.30;;;24.00;61.80;;;;;;5071815;28;20091;-68
2022/06/27 05:28:03;;;;;;;3.92;1.45;;;24.10;61.50;;;;;;5072811;28;20482;-68
2022/06/27 05:30:30;;;;;;;8.45;1.67;;;24.20;61.50;;;;;;5072519;28;20044;-67
2022/06/27 05:32:56;;;;;;;7.75;1.60;;;24.20;61.80;;;;;;5072643;28;20060;-68
2022/06/27 05:35:22;;;;;;;8.52;1.67;;;24.20;61.90;;;;;;5072339;28;20058;-68
2022/06/27 05:37:50;;;;;;;8.23;2.05;;;24.20;61.90;;;;;;5072299;28;20534;-67
2022/06/27 05:40:17;;;;;;;6.53;1.60;;;24.30;62.20;;;;;;5072489;28;20368;-67
2022/06/27 05:42:43;;;;;;;3.38;1.33;;;24.30;62.40;;;;;;5072495;28;20479;-68
2022/06/27 05:45:10;;;;;;;6.13;1.50;;;24.40;61.40;;;;;;5072365;28;20036;-68
2022/06/27 05:47:36;;;;;;;8.88;1.58;;;24.40;61.10;;;;;;5072427;28;20412;-67
2022/06/27 05:50:05;;;;;;;4.60;1.40;;;24.50;61.10;;;;;;5072592;28;20120;-65
2022/06/27 05:52:31;;;;;;;6.20;1.38;;;24.60;60.90;;;;;;5072224;28;20127;-69
2022/06/27 05:54:59;;;;;;;4.45;1.42;;;24.60;61.00;;;;;;5072637;28;20133;-66
2022/06/27 05:57:27;;;;;;;7.22;1.75;;;24.60;60.80;;;;;;5072490;28;20035;-68
2022/06/27 05:59:55;;;;;;;7.22;2.10;;;24.70;60.30;;;;;;5072667;28;20135;-68
2022/06/27 06:02:25;;;;;;;4.88;1.40;;;24.80;60.20;;;;;;5072521;28;20021;-68
2022/06/27 06:04:51;;;;;;;6.00;1.58;;;24.80;60.40;;;;;;5072328;28;20035;-67
2022/06/27 06:07:17;;;;;;;5.18;1.90;;;24.90;61.00;;;;;;5072284;28;20040;-67
2022/06/27 06:09:44;;;;;;;4.43;1.73;;;24.90;61.20;;;;;;5072339;28;20082;-68
2022/06/27 06:12:11;;;;;;;6.03;1.50;;;25.00;60.90;;;;;;5070839;28;20402;-68
2022/06/27 06:14:40;;;;;;;6.53;1.73;;;25.00;61.00;;;;;;5072347;28;20440;-67
2022/06/27 06:17:06;;;;;;;4.65;1.67;;;25.10;61.10;;;;;;5072720;28;20036;-68
2022/06/27 06:19:32;;;;;;;10.18;1.70;;;25.10;61.40;;;;;;5072221;28;20028;-68
2022/06/27 06:21:58;;;;;;;5.03;1.63;;;25.20;61.10;;;;;;5072329;28;20032;-67
2022/06/27 06:24:24;;;;;;;7.18;1.77;;;25.20;60.90;;;;;;5072229;28;20044;-68
2022/06/27 06:26:53;;;;;;;8.38;1.73;;;25.30;61.20;;;;;;5072086;28;20050;-68
2022/06/27 06:29:21;;;;;;;5.50;1.55;;;25.40;61.70;;;;;;5072081;28;20132;-67
2022/06/27 06:31:48;;;;;;;6.35;1.40;;;25.40;61.70;;;;;;5072344;28;20037;-66
2022/06/27 06:34:16;;;;;;;7.78;1.50;;;25.40;61.80;;;;;;5072185;28;20083;-67
2022/06/27 06:36:44;;;;;;;7.75;1.60;;;25.50;61.50;;;;;;5075397;28;20391;-67
2022/06/27 06:39:10;;;;;;;8.52;1.50;;;25.50;61.00;;;;;;5075909;28;20040;-68
2022/06/27 06:41:37;;;;;;;5.38;1.70;;;25.60;60.70;;;;;;5075767;28;20032;-68
2022/06/27 06:44:05;;;;;;;12.07;1.70;;;25.60;60.20;;;;;;5075479;28;20032;-67
2022/06/27 06:46:34;;;;;;;6.43;1.48;;;25.70;59.70;;;;;;5075292;28;20086;-68
2022/06/27 06:49:06;;;;;;;4.72;1.33;;;25.70;59.60;;;;;;5075303;28;20044;-68
2022/06/27 06:51:34;;;;;;;3.45;1.30;;;25.80;59.20;;;;;;5075461;28;20029;-68
2022/06/27 06:54:02;;;;;;;4.97;1.60;;;25.80;58.80;;;;;;5075241;28;20371;-69
2022/06/27 06:56:30;;;;;;;5.00;1.52;;;25.90;59.10;;;;;;5075049;28;20039;-67
2022/06/27 06:59:00;;;;;;;5.90;1.40;;;25.90;59.00;;;;;;5079125;28;20471;-68
2022/06/27 07:01:27;;;;;;;9.70;1.83;;;26.00;58.70;;;;;;5077464;28;20111;-66
2022/06/27 07:03:55;;;;;;;5.80;1.48;;;26.10;58.30;;;;;;5075260;28;20437;-68
2022/06/27 07:06:28;;;;;;;10.18;1.80;;;26.10;58.00;;;;;;5075230;28;20035;-67
2022/06/27 07:08:55;;;;;;;9.05;1.83;;;26.20;58.00;;;;;;5074913;28;20382;-68
2022/06/27 07:11:22;;;;;;;5.72;1.20;;;26.30;58.60;;;;;;5075149;28;20135;-67
2022/06/27 07:13:51;;;;;;;4.18;1.35;;;26.30;58.60;;;;;;5075119;28;20040;-67
2022/06/27 07:16:18;;;;;;;5.15;1.77;;;26.30;58.20;;;;;;5075189;28;20078;-67
2022/06/27 07:18:46;;;;;;;9.00;1.50;;;26.40;58.20;;;;;;5074662;28;20368;-67
2022/06/27 07:21:14;;;;;;;9.40;1.50;;;26.40;58.30;;;;;;5074887;28;20064;-68
2022/06/27 07:23:39;;;;;;;7.13;1.55;;;26.50;58.30;;;;;;5074841;28;20024;-66
2022/06/27 07:26:06;;;;;;;6.05;1.75;;;26.60;58.40;;;;;;5075071;28;20363;-67
2022/06/27 07:28:32;;;;;;;5.93;1.63;;;26.70;58.10;;;;;;5074490;28;20020;-68
2022/06/27 07:30:59;;;;;;;6.70;1.52;;;26.80;57.80;;;;;;5074697;28;20043;-68
2022/06/27 07:33:25;;;;;;;6.93;1.25;;;26.80;58.00;;;;;;5074408;28;20044;-68
2022/06/27 07:35:51;;;;;;;8.07;1.67;;;26.90;57.60;;;;;;5074994;28;20041;-68
2022/06/27 07:38:16;;;;;;;7.43;1.50;;;27.00;57.70;;;;;;5074583;28;20032;-67
2022/06/27 07:40:42;;;;;;;5.85;1.45;;;27.00;57.50;;;;;;5074760;28;20093;-67
2022/06/27 07:43:13;;;;;;;8.13;1.40;;;27.00;58.10;;;;;;5074405;28;20036;-68
2022/06/27 07:45:40;;;;;;;6.28;1.80;;;27.10;58.00;;;;;;5074564;28;20070;-66
2022/06/27 07:48:06;;;;;;;7.95;2.05;;;27.10;57.40;;;;;;5073892;28;20047;-66
2022/06/27 07:50:42;;;;;;;4.10;1.25;;;27.20;57.80;;;;;;5074665;28;20393;-70
2022/06/27 07:53:20;;;;;;;7.13;1.40;;;27.30;58.40;;;;;;5074550;28;20033;-67
2022/06/27 07:55:52;;;;;;;5.15;1.30;;;27.40;57.80;;;;;;5074073;28;20033;-68
2022/06/27 07:58:21;;;;;;;6.30;1.20;;;27.40;57.40;;;;;;5074025;28;20041;-67
2022/06/27 08:00:49;;;;;;;4.95;1.23;;;27.50;56.60;;;;;;5074305;28;20107;-68
2022/06/27 08:06:05;;;;;;;4.40;1.40;;;27.60;55.40;;;;;;5074522;28;20579;-68
2022/06/27 08:08:33;;;;;;;5.20;1.38;;;27.70;55.70;;;;;;5074159;28;20028;-69
2022/06/27 08:10:59;;;;;;;3.35;1.05;;;27.70;54.30;;;;;;5074019;28;20485;-67
2022/06/27 08:13:28;;;;;;;7.97;1.20;;;27.80;53.60;;;;;;5073989;28;20487;-67
2022/06/27 08:15:55;;;;;;;9.52;1.20;;;27.90;54.30;;;;;;5073750;28;20105;-67
2022/06/27 08:18:21;;;;;;;6.63;1.40;;;27.90;52.60;;;;;;5073479;28;20037;-67
2022/06/27 08:20:47;;;;;;;8.00;1.20;;;28.00;50.60;;;;;;5073852;28;20028;-67
2022/06/27 08:23:14;;;;;;;9.60;1.63;;;28.10;50.30;;;;;;5073437;28;20041;-67
2022/06/27 08:25:41;;;;;;;5.68;1.10;;;28.20;51.40;;;;;;5073646;28;20032;-67
2022/06/27 08:28:08;;;;;;;6.30;1.65;;;28.30;52.40;;;;;;5073589;28;20036;-67
2022/06/27 08:30:34;;;;;;;5.53;1.25;;;28.40;51.80;;;;;;5073400;28;20044;-67
2022/06/27 08:33:00;;;;;;;14.20;1.85;;;28.40;50.20;;;;;;5073666;28;20047;-68
2022/06/27 08:35:26;;;;;;;6.50;1.30;;;28.50;50.70;;;;;;5073633;28;20036;-70
2022/06/27 08:37:54;;;;;;;10.00;1.65;;;28.60;49.90;;;;;;5073454;28;20024;-68
2022/06/27 08:40:22;;;;;;;6.97;1.25;;;28.70;49.60;;;;;;5073369;28;20028;-68
2022/06/27 08:42:48;;;;;;;4.95;1.40;;;28.90;49.80;;;;;;5073515;28;20036;-68
2022/06/27 08:45:17;;;;;;;4.93;1.45;;;28.90;48.70;;;;;;5073189;28;20391;-68
2022/06/27 08:47:43;;;;;;;9.13;1.88;;;29.00;48.00;;;;;;5073502;28;20065;-68
2022/06/27 08:50:10;;;;;;;9.57;1.40;;;29.00;46.40;;;;;;5073150;28;20052;-66
2022/06/27 08:52:41;;;;;;;6.55;1.77;;;29.10;47.00;;;;;;5072965;28;20074;-68
2022/06/27 08:55:08;;;;;;;3.78;1.58;;;29.20;47.90;;;;;;5073026;28;20041;-67
2022/06/27 08:57:43;;;;;;;7.07;1.17;;;29.30;47.00;;;;;;5073370;28;20421;-68
2022/06/27 09:00:11;;;;;;;9.70;1.48;;;29.30;47.30;;;;;;5073055;28;20085;-68
2022/06/27 09:02:42;;;;;;;15.25;1.73;;;29.40;46.60;;;;;;5073060;28;20038;-68
2022/06/27 09:05:15;;;;;;;6.05;1.75;;;29.50;45.70;;;;;;5072904;28;20115;-68
2022/06/27 09:07:50;;;;;;;10.32;1.63;;;29.50;44.00;;;;;;5072923;28;20021;-68
2022/06/27 09:10:25;;;;;;;14.23;1.55;;;29.60;44.70;;;;;;5073065;28;20048;-67
2022/06/27 09:13:02;;;;;;;10.48;1.60;;;29.60;45.50;;;;;;5072869;28;20036;-68
2022/06/27 09:15:53;;;;;;;5.65;1.50;;;29.70;46.30;;;;;;5072836;28;20544;-67
2022/06/27 09:18:23;;;;;;;5.85;1.30;;;29.80;47.20;;;;;;5073008;28;20040;-67
2022/06/27 09:20:58;;;;;;;14.00;1.88;;;29.80;46.90;;;;;;5072828;28;20068;-67
2022/06/27 09:23:49;;;;;;;8.88;1.55;;;29.90;47.50;;;;;;5072855;28;20028;-68
2022/06/27 09:26:16;;;;;;;11.07;1.80;;;30.00;47.00;;;;;;5072991;28;20028;-68
2022/06/27 09:29:14;;;;;;;12.55;2.00;;;30.10;47.10;;;;;;5072930;28;20044;-68
2022/06/27 09:31:42;;;;;;;11.77;1.90;;;30.20;46.70;;;;;;5072291;28;20044;-67
2022/06/27 09:34:16;;;;;;;10.20;2.10;;;30.30;46.70;;;;;;5072589;28;20049;-67
2022/06/27 09:36:44;;;;;;;12.65;2.50;;;30.40;46.10;;;;;;5072965;28;20040;-67
2022/06/27 09:39:39;;;;;;;19.33;2.30;;;30.40;44.80;;;;;;5072730;28;20162;-67
2022/06/27 09:42:08;;;;;;;14.05;2.22;;;30.50;45.30;;;;;;5072547;28;20479;-67
2022/06/27 09:44:45;;;;;;;9.98;1.70;;;30.60;45.20;;;;;;5072435;28;20055;-67
2022/06/27 09:47:25;;;;;;;12.38;2.10;;;30.60;44.60;;;;;;5072524;28;20095;-67
2022/06/27 09:49:56;;;;;;;11.05;2.20;;;30.70;44.40;;;;;;5072290;28;20495;-68
2022/06/27 09:52:25;;;;;;;14.85;2.13;;;30.80;43.40;;;;;;5072760;28;20032;-67
2022/06/27 09:54:53;;;;;;;12.73;2.15;;;30.90;43.50;;;;;;5072494;28;20037;-68
2022/06/27 09:57:20;;;;;;;11.93;2.03;;;30.90;43.70;;;;;;5072607;28;20497;-68
2022/06/27 09:59:47;;;;;;;15.10;2.60;;;30.90;43.00;;;;;;5072513;28;20115;-67
2022/06/27 10:02:19;;;;;;;9.60;2.80;;;30.90;43.30;;;;;;5072081;28;20051;-67
2022/06/27 10:04:49;;;;;;;;;;;31.00;44.20;;;;;;5072411;28;20162;-67
2022/06/27 10:07:17;;;;;;;13.07;2.35;;;31.20;44.50;;;;;;5072480;28;19987;-70
2022/06/27 10:09:43;;;;;;;95.68;6.97;;;31.20;44.20;;;;;;5072696;28;20036;-67
2022/06/27 10:12:24;;;;;;;14.45;2.17;;;31.30;44.50;;;;;;5076576;28;20083;-67
2022/06/27 10:15:20;;;;;;;9.73;2.00;;;31.30;44.10;;;;;;5076440;28;20036;-67
2022/06/27 10:17:46;;;;;;;14.93;2.53;;;31.40;44.50;;;;;;5067354;28;20043;-68
2022/06/27 10:20:16;;;;;;;13.85;2.50;;;31.50;44.40;;;;;;5076038;28;20036;-67
2022/06/27 10:22:42;;;;;;;12.50;2.75;;;31.50;43.50;;;;;;5076152;28;20474;-67
2022/06/27 10:25:26;;;;;;;14.20;3.00;;;31.60;43.80;;;;;;5076132;28;20093;-67
2022/06/27 10:28:10;;;;;;;15.85;2.45;;;31.60;43.50;;;;;;5076314;28;20040;-67
2022/06/27 10:30:43;;;;;;;9.23;2.17;;;31.70;43.40;;;;;;5075970;28;20490;-67
2022/06/27 10:33:24;;;;;;;13.73;1.95;;;31.70;43.20;;;;;;5075786;28;20052;-67
2022/06/27 10:35:55;;;;;;;12.80;2.60;;;31.80;43.60;;;;;;5075993;28;20056;-67
2022/06/27 10:38:42;;;;;;;19.20;2.80;;;31.80;43.30;;;;;;5076150;28;20083;-67
2022/06/27 10:41:33;;;;;;;11.45;2.38;;;31.80;43.40;;;;;;5075875;28;20086;-67
2022/06/27 10:43:59;;;;;;;16.75;2.40;;;31.90;43.70;;;;;;5075572;28;20425;-68
2022/06/27 10:46:25;;;;;;;11.55;1.92;;;31.90;43.70;;;;;;5075667;28;20094;-67
2022/06/27 10:48:54;;;;;;;12.30;2.47;;;32.00;44.50;;;;;;5075279;28;20029;-68
2022/06/27 10:51:26;;;;;;;10.30;2.25;;;32.00;44.80;;;;;;5075578;28;20033;-68
2022/06/27 10:54:08;;;;;;;13.82;2.22;;;32.10;44.20;;;;;;5075644;28;20108;-68
2022/06/27 10:56:47;;;;;;;20.30;2.25;;;32.10;42.70;;;;;;5075456;28;20425;-67
2022/06/27 10:59:13;;;;;;;15.50;2.03;;;32.10;44.40;;;;;;5075158;28;20067;-68
2022/06/27 11:01:57;;;;;;;14.70;2.40;;;32.20;44.00;;;;;;5074177;28;20079;-68
2022/06/27 11:04:26;;;;;;;14.68;2.90;;;32.30;44.20;;;;;;5074178;28;20552;-68
2022/06/27 11:07:12;;;;;;;17.77;3.08;;;32.30;44.20;;;;;;5075211;28;20107;-68
2022/06/27 11:09:46;;;;;;;17.05;2.42;;;32.30;44.40;;;;;;5074716;28;20049;-67
2022/06/27 11:12:17;;;;;;;12.05;2.85;;;32.40;44.70;;;;;;5075177;28;20494;-74
2022/06/27 11:14:54;;;;;;;17.57;2.90;;;32.40;44.00;;;;;;5075280;28;20043;-69
2022/06/27 11:17:34;;;;;;;9.85;2.33;;;32.40;44.40;;;;;;5075572;28;20036;-68
2022/06/27 11:20:25;;;;;;;13.32;2.80;;;32.50;45.10;;;;;;5075411;28;20431;-70
2022/06/27 11:22:55;;;;;;;17.63;3.20;;;32.60;44.40;;;;;;5074817;28;20033;-69
2022/06/27 11:25:23;;;;;;;14.27;2.07;;;32.60;43.80;;;;;;5075310;28;20039;-70
2022/06/27 11:33:31;;;;;;;23.75;3.42;;;32.70;41.80;;;;;;5074819;28;20099;-73
2022/06/27 11:35:58;;;;;;;13.85;2.47;;;32.70;43.10;;;;;;5074848;28;20383;-70
2022/06/27 11:38:45;;;;;;;18.55;3.45;;;32.80;41.60;;;;;;5074732;28;20166;-72
2022/06/27 11:41:13;;;;;;;27.55;3.40;;;32.80;42.50;;;;;;5074610;28;20039;-70
2022/06/27 11:44:05;;;;;;;21.00;2.80;;;32.80;41.00;;;;;;5074475;28;20038;-69
2022/06/27 11:46:45;;;;;;;20.00;3.22;;;32.90;41.60;;;;;;5074607;28;20437;-71
2022/06/27 11:49:14;;;;;;;13.50;2.17;;;32.90;42.20;;;;;;5074496;28;20068;-69
2022/06/27 11:51:42;;;;;;;13.82;2.70;;;33.00;42.70;;;;;;5074269;28;20068;-70
2022/06/27 11:54:14;;;;;;;18.38;3.25;;;33.00;42.60;;;;;;5074187;28;20040;-73
2022/06/27 11:56:45;;;;;;;19.20;3.05;;;33.10;42.80;;;;;;5074349;28;20073;-70
2022/06/27 11:59:13;;;;;;;25.02;3.17;;;33.10;41.90;;;;;;5074424;28;20033;-66
2022/06/27 12:02:02;;;;;;;24.23;3.25;;;33.20;41.30;;;;;;5074439;28;20025;-71
2022/06/27 12:04:35;;;;;;;24.02;4.20;;;33.20;41.10;;;;;;5074115;28;20493;-71
2022/06/27 12:07:09;;;;;;;24.70;3.88;;;33.20;40.80;;;;;;5073912;28;20510;-69
2022/06/27 12:09:51;;;;;;;26.25;3.33;;;33.30;39.40;;;;;;5074373;28;20410;-69
2022/06/27 12:12:19;;;;;;;19.20;3.45;;;33.30;40.00;;;;;;5074279;28;20112;-78
2022/06/27 12:14:47;;;;;;;27.73;3.95;;;33.40;40.30;;;;;;5073996;28;20380;-82
2022/06/27 12:17:13;;;;;;;27.10;3.45;;;33.40;39.90;;;;;;5073909;28;20432;-76
2022/06/27 12:19:41;;;;;;;22.30;3.70;;;33.40;40.00;;;;;;5073766;28;20044;-77
2022/06/27 12:22:08;;;;;;;25.98;3.55;;;33.40;39.60;;;;;;5073700;28;20036;-77
2022/06/27 12:24:35;;;;;;;24.27;3.08;;;33.50;40.60;;;;;;5073811;28;20060;-77
2022/06/27 12:27:01;;;;;;;14.10;3.53;;;33.50;40.40;;;;;;5073622;28;20068;-77
2022/06/27 12:29:27;;;;;;;13.80;2.75;;;33.60;38.80;;;;;;5073663;28;20095;-81
2022/06/27 12:31:52;;;;;;;19.23;3.35;;;33.50;40.30;;;;;;5073590;28;20049;-80
2022/06/27 12:34:18;;;;;;;23.25;3.58;;;33.50;40.00;;;;;;5073056;28;20446;-75
2022/06/27 12:36:44;;;;;;;20.90;3.60;;;33.50;40.70;;;;;;5073538;28;20099;-77
2022/06/27 12:39:09;;;;;;;15.27;3.05;;;33.50;41.50;;;;;;5072341;28;20032;-77
2022/06/27 12:41:37;;;;;;;20.83;3.60;;;33.60;41.20;;;;;;5073522;28;20039;-75
2022/06/27 12:44:04;;;;;;;26.33;3.60;;;33.60;42.00;;;;;;5073533;28;20045;-76
2022/06/27 12:46:31;;;;;;;28.85;3.13;;;33.60;42.20;;;;;;5073304;28;20029;-74
2022/06/27 12:48:56;;;;;;;21.02;4.53;;;33.60;41.10;;;;;;5073687;28;20029;-69
2022/06/27 12:51:25;;;;;;;18.92;2.92;;;33.60;40.70;;;;;;5073551;28;20483;-70
2022/06/27 12:53:51;;;;;;;20.88;3.42;;;33.70;41.50;;;;;;5073456;28;20032;-68
2022/06/27 12:56:17;;;;;;;18.40;3.08;;;33.70;41.20;;;;;;5073354;28;20044;-69
2022/06/27 12:58:43;;;;;;;19.35;2.83;;;33.70;41.70;;;;;;5072988;28;20021;-69
2022/06/27 13:01:09;;;;;;;16.17;2.78;;;33.70;40.90;;;;;;5073176;28;20064;-69